x

Indiana / Stewart Field Weather Station

11:55pm - Wed 24th May 2017 All times are CDT. -5 hours from GMT.

  • Wind
    18mph, 27mph gusts
  • Air Temp 57°f
  • Sea Pressure 1002.4mb
  • Indiana / Stewart Field
  • Indiana / Stewart Field

More Historic Weather Station data

Upgrade to MSW Pro to gain access to the past 30 days of data for over 8000 Wavebouys and Weather Stations around the globe.

Join Pro

Comparision Forecast

View Surf forecast
   
Wed 05/24 11:55pm 18 27 mph 1002.4mb 57f
11:15pm 13 20 mph 1002.7mb 57f
10:55pm 15 28 mph 1003.1mb 57f
10:15pm 12 21 mph 1003.7mb 57f
9:55pm 13 21 mph 1003.4mb 57f
8:55pm 14 22 mph 1003.7mb 57f
8:15pm 12 18 mph 1003.4mb 57f
7:55pm 9
mph
1003.7mb 57f
7:15pm 9 16 mph 1004.7mb 59f
6:55pm 14 22 mph 1004.4mb 61f
6:15pm 13 20 mph 1004.4mb 63f
5:55pm 14 28 mph 1004.1mb 63f
5:15pm 12 22 mph 1004.1mb 64f
4:55pm  -  mph 1004.4mb 64f
4:15pm 13 24 mph 1004.4mb 64f
3:55pm 13 27 mph 1004.1mb 64f
2:55pm 16 24 mph 1005.1mb 64f
2:15pm 13 24 mph 1005.4mb 64f
1:55pm 13 22 mph 1005.4mb 64f
1:15pm 12 20 mph 1005.4mb 66f
12:55pm 15
mph
1005.4mb 66f
12:15pm 14 20 mph 1005.1mb 66f
11:55am 7 16 mph 1005.4mb 66f
11:15am 12 23 mph 1005.4mb 66f
10:55am 14 22 mph 1005.4mb 66f
10:15am 12 17 mph 1005.8mb 64f
9:55am 14 20 mph 1005.8mb 64f
9:15am 6 14 mph 1006.1mb 64f
8:55am 12
mph
1006.1mb 63f
Sun 05/21 10:55pm 10 16 mph 1019.3mb 59f
10:15pm 12 18 mph 1019.3mb 59f
9:55pm 8 17 mph 1019.3mb 57f
9:15pm 9 20 mph 1019.6mb 57f
8:55pm 13 20 mph 1019.6mb 57f
8:15pm 14 23 mph 1020mb 57f
7:55pm 9 18 mph 1019.6mb 57f
7:15pm 13 18 mph 1020mb 61f
6:55pm 8
mph
1020mb 63f
6:15pm 12
mph
1020mb 63f
5:55pm 12
mph
1020mb 63f
5:15pm 12
mph
1019.6mb 63f
4:55pm 9 16 mph 1019.6mb 64f
4:15pm 14 21 mph 1019.6mb 64f
3:55pm 8 17 mph 1019.6mb 64f
3:15pm 9 15 mph 1020mb 64f
2:55pm 15 21 mph 1020.3mb 63f
2:15pm 10 21 mph 1020.3mb 66f
1:55pm 18
mph
1020.3mb 68f
1:15pm 14 20 mph 1020.7mb 70f
12:55pm 14 21 mph 1021mb 70f
12:15pm 9 18 mph 1021.3mb 72f
11:55am 14 21 mph 1022mb 68f
11:15am 13 22 mph 1022mb 68f
10:55am 17
mph
1022mb 68f
10:15am 10 22 mph 1022mb 68f
9:55am 12 24 mph 1022.4mb 68f
9:15am 17
mph
1022.4mb 66f
8:55am 9 16 mph 1022.7mb 66f
8:15am 15
mph
1022.7mb 64f
7:55am 15 21 mph 1022.7mb 63f
7:15am 12
mph
1023mb 61f
6:55am 9 20 mph 1022.7mb 61f
6:15am 8 16 mph 1022.7mb 59f
5:55am 10 16 mph 1022.7mb 57f